Time;durP1;ratioP1;P1;durP2;ratioP2;P2;SDS_P1;SDS_P2;PMS_P1;PMS_P2;Temp;Humidity;BMP_temperature;BMP_pressure;BME280_temperature;BME280_humidity;BME280_pressure;Samples;Min_cycle;Max_cycle;Signal;HPM_P1;HPM_P2
2022/01/20 00:00:20;;;;;;;27.85;4.93;;;;;;;1.52;100.00;102488.06;4767354;30;20123;-80
2022/01/20 00:02:47;;;;;;;27.88;4.75;;;;;;;1.70;100.00;102500.81;4767192;29;20481;-80
2022/01/20 00:08:00;;;;;;;29.17;5.03;;;;;;;1.79;100.00;102485.56;4767119;30;20035;-82
2022/01/20 00:26:53;;;;;;;27.40;4.65;;;;;;;2.06;100.00;102517.78;4801679;29;20061;-81
2022/01/20 00:29:26;;;;;;;27.05;4.68;;;;;;;2.08;100.00;102498.28;4789156;29;20427;-81
2022/01/20 00:32:06;;;;;;;22.63;3.92;;;;;;;2.21;100.00;102505.03;4805387;29;20059;-81
2022/01/20 00:35:03;;;;;;;23.02;3.65;;;;;;;2.28;100.00;102511.00;4805020;29;20041;-80
2022/01/20 00:37:18;;;;;;;32.17;4.00;;;;;;;2.27;100.00;102509.28;4804672;29;20035;-80
2022/01/20 00:39:45;;;;;;;20.58;4.15;;;;;;;2.29;100.00;102510.13;4806078;29;20027;-80
2022/01/20 00:42:10;;;;;;;22.23;3.97;;;;;;;2.22;100.00;102516.94;4808092;29;20023;-80
2022/01/20 00:44:35;;;;;;;21.52;2.97;;;;;;;2.25;100.00;102510.97;4808270;29;20083;-80
2022/01/20 00:47:01;;;;;;;18.20;3.22;;;;;;;2.30;100.00;102507.59;4808232;29;20062;-80
2022/01/20 00:49:26;;;;;;;21.35;3.63;;;;;;;2.35;100.00;102507.56;4808265;29;20065;-80
2022/01/20 00:51:51;;;;;;;22.05;3.60;;;;;;;2.45;100.00;102511.78;4808368;29;20035;-80
2022/01/20 00:54:17;;;;;;;16.80;3.13;;;;;;;2.53;100.00;102511.78;4806055;29;20415;-80
2022/01/20 00:56:42;;;;;;;23.08;3.55;;;;;;;2.53;100.00;102512.63;4807951;29;20030;-80
2022/01/20 00:59:08;;;;;;;24.52;4.25;;;;;;;2.30;100.00;102454.06;4806342;29;20043;-81
2022/01/20 01:01:33;;;;;;;23.17;3.78;;;;;;;2.71;100.00;102509.16;4808266;29;20106;-80
2022/01/20 01:03:59;;;;;;;23.75;4.28;;;;;;;2.39;100.00;102442.13;4808177;29;20091;-80
2022/01/20 01:09:08;;;;;;;19.58;3.45;;;;;;;2.76;100.00;102520.22;4807823;29;20039;-81
2022/01/20 01:11:35;;;;;;;23.73;5.15;;;;;;;2.70;99.94;102517.69;4808149;29;20069;-80
2022/01/20 01:14:03;;;;;;;22.85;4.03;;;;;;;2.64;100.00;102527.03;4806680;29;20111;-80
2022/01/20 01:16:42;;;;;;;22.95;4.00;;;;;;;2.35;100.00;102497.34;4807567;29;20088;-80
2022/01/20 01:22:04;;;;;;;15.90;3.53;;;;;;;2.48;100.00;102533.91;4807980;29;20519;-81
2022/01/20 01:24:30;;;;;;;22.48;4.07;;;;;;;2.45;100.00;102529.63;4807329;29;20369;-80
2022/01/20 01:26:55;;;;;;;16.35;4.00;;;;;;;2.16;100.00;102490.59;4807336;29;20053;-80
2022/01/20 01:35:11;;;;;;;23.02;3.42;;;;;;;2.49;100.00;102527.94;4991301;24;20055;-80
2022/01/20 01:40:14;;;;;;;19.98;3.35;;;;;;;2.29;100.00;102487.19;4789400;30;20035;-80
2022/01/20 01:42:53;;;;;;;21.60;3.10;;;;;;;2.08;100.00;102446.47;4788062;30;20031;-80
2022/01/20 01:45:25;;;;;;;20.05;3.97;;;;;;;2.36;100.00;102513.50;4789386;30;20061;-80
2022/01/20 01:47:50;;;;;;;23.25;3.60;;;;;;;2.26;100.00;102507.56;5254682;24;20030;-80
2022/01/20 01:50:16;;;;;;;15.68;2.50;;;;;;;2.07;100.00;102476.19;4788282;29;20051;-80
2022/01/20 01:52:42;;;;;;;19.30;3.97;;;;;;;2.26;100.00;102518.66;4788591;29;20126;-80
2022/01/20 01:55:08;;;;;;;22.45;3.75;;;;;;;1.88;100.00;102469.41;4788712;30;20110;-80
2022/01/20 01:57:34;;;;;;;17.60;2.70;;;;;;;2.11;100.00;102523.75;4788680;30;20092;-80
2022/01/20 01:59:59;;;;;;;17.45;3.17;;;;;;;2.17;100.00;102525.47;4772831;30;20043;-80
2022/01/20 02:02:27;;;;;;;21.98;3.10;;;;;;;2.13;100.00;102532.22;4788861;30;20500;-81
2022/01/20 02:04:52;;;;;;;21.05;4.00;;;;;;;2.07;100.00;102526.31;4788810;30;20035;-80
2022/01/20 02:18:36;;;;;;;21.80;3.13;;;;;;;1.94;100.00;102492.31;4788961;30;20050;-81
2022/01/20 02:20:58;;;;;;;20.85;3.17;;;;;;;2.17;100.00;102505.06;4788526;30;20121;-81
2022/01/20 02:23:25;;;;;;;19.55;3.35;;;;;;;2.47;100.00;102545.81;4788723;30;20477;-80
2022/01/20 02:25:51;;;;;;;23.80;3.83;;;;;;;2.44;100.00;102519.44;4786921;30;20050;-81
2022/01/20 02:28:16;;;;;;;16.85;2.83;;;;;;;2.68;100.00;102541.50;4788506;30;20492;-80
2022/01/20 02:31:25;;;;;;;19.48;2.88;;;;;;;2.62;99.97;102505.81;4788869;30;20469;-81
2022/01/20 02:33:50;;;;;;;17.63;3.30;;;;;;;2.75;99.96;102527.84;4736179;30;20132;-80
2022/01/20 02:36:17;;;;;;;19.02;3.10;;;;;;;2.66;99.29;102503.25;4750838;30;20143;-80
2022/01/20 02:38:53;;;;;;;18.17;2.42;;;;;;;2.91;99.03;102526.97;4750948;30;20102;-81
2022/01/20 02:46:47;;;;;;;12.23;2.38;;;;;;;2.60;98.53;102477.75;4750883;30;20101;-80
2022/01/20 02:49:15;;;;;;;11.57;1.83;;;;;;;2.73;98.35;102524.47;4750637;30;20123;-80
2022/01/20 02:51:46;;;;;;;15.82;2.47;;;;;;;2.62;98.85;102519.41;4750313;30;20126;-80
2022/01/20 02:54:12;;;;;;;20.63;2.40;;;;;;;2.50;99.44;102522.00;4750521;30;20063;-80
2022/01/20 02:56:37;;;;;;;14.35;2.45;;;;;;;2.33;99.29;102504.16;4750069;30;20063;-80
2022/01/20 02:59:02;;;;;;;13.73;2.25;;;;;;;2.50;99.95;102522.00;4750265;30;20044;-80
2022/01/20 03:01:28;;;;;;;14.23;2.42;;;;;;;2.48;99.69;102509.25;4750426;30;20111;-81
2022/01/20 03:03:53;;;;;;;15.25;2.47;;;;;;;2.50;99.87;102509.25;4749647;30;20065;-80
2022/01/20 03:06:18;;;;;;;15.70;2.35;;;;;;;2.34;99.78;102502.47;4750304;30;20128;-80
2022/01/20 03:08:44;;;;;;;16.60;2.55;;;;;;;2.41;100.00;102501.63;4750376;30;20032;-80
2022/01/20 03:11:09;;;;;;;22.80;3.35;;;;;;;2.48;100.00;102509.25;4778394;30;20067;-80
2022/01/20 03:13:35;;;;;;;14.73;3.03;;;;;;;2.45;100.00;102499.03;4788001;30;20514;-81
2022/01/20 03:16:00;;;;;;;13.50;2.22;;;;;;;2.58;100.00;102512.63;4787978;30;20023;-80
2022/01/20 03:18:25;;;;;;;18.25;2.38;;;;;;;2.50;100.00;102505.00;4787742;30;20042;-80
2022/01/20 03:20:51;;;;;;;19.15;3.45;;;;;;;2.33;100.00;102476.13;4787635;30;20484;-80
2022/01/20 03:23:16;;;;;;;13.68;2.22;;;;;;;2.27;100.00;102474.47;4787690;30;20491;-80
2022/01/20 03:25:41;;;;;;;16.25;2.25;;;;;;;2.38;100.00;102488.88;4786556;30;20395;-80
2022/01/20 03:28:07;;;;;;;14.52;2.35;;;;;;;2.41;100.00;102486.31;4787699;30;20069;-80
2022/01/20 03:30:34;;;;;;;13.13;2.08;;;;;;;2.45;100.00;102467.59;4787808;30;20468;-80
2022/01/20 03:33:00;;;;;;;15.30;2.40;;;;;;;2.61;100.00;102499.00;4787700;30;20035;-80
2022/01/20 03:35:25;;;;;;;15.90;2.65;;;;;;;2.48;100.00;102465.06;4787787;30;20031;-80
2022/01/20 03:37:56;;;;;;;13.80;2.22;;;;;;;2.59;100.00;102497.31;4787664;30;20031;-81
2022/01/20 03:40:23;;;;;;;13.57;2.28;;;;;;;2.56;99.99;102497.34;4787755;30;20081;-81
2022/01/20 03:42:48;;;;;;;17.73;2.40;;;;;;;2.38;99.88;102471.03;4787203;30;20039;-80
2022/01/20 03:45:14;;;;;;;18.10;2.35;;;;;;;2.55;99.12;102497.31;4787579;30;20092;-80
2022/01/20 03:47:39;;;;;;;16.15;2.78;;;;;;;2.64;99.07;102502.38;4787567;30;20499;-81
2022/01/20 03:50:09;;;;;;;16.15;2.65;;;;;;;2.64;98.36;102507.47;4787434;30;20035;-80
2022/01/20 03:52:34;;;;;;;24.20;3.17;;;;;;;2.47;98.61;102487.16;4787151;30;20042;-80
2022/01/20 03:55:00;;;;;;;12.40;2.05;;;;;;;2.48;98.42;102493.94;4787594;30;20031;-80
2022/01/20 03:57:26;;;;;;;18.70;3.67;;;;;;;2.40;98.18;102479.53;4785529;29;20044;-80
2022/01/20 03:59:51;;;;;;;18.20;2.25;;;;;;;2.39;97.56;102488.03;4787302;30;20038;-80
2022/01/20 04:02:17;;;;;;;19.02;2.92;;;;;;;2.29;97.46;102474.44;4787602;30;20023;-81
2022/01/20 04:04:42;;;;;;;20.10;2.88;;;;;;;2.35;97.16;102496.50;4787347;30;20043;-80
2022/01/20 04:07:08;;;;;;;14.52;2.30;;;;;;;2.41;97.31;102502.47;4787317;30;20239;-80
2022/01/20 04:09:33;;;;;;;14.00;2.80;;;;;;;2.33;96.88;102478.69;4787243;30;20110;-80
2022/01/20 04:11:59;;;;;;;19.65;2.95;;;;;;;2.56;96.77;102507.53;4787029;30;20055;-80
2022/01/20 04:14:45;;;;;;;14.52;2.42;;;;;;;2.51;96.67;102485.44;4788618;29;20027;-81
2022/01/20 04:17:16;;;;;;;19.25;2.72;;;;;;;2.76;96.85;102527.88;4790749;30;20035;-81
2022/01/20 04:19:41;;;;;;;8.10;2.00;;;;;;;2.81;96.36;102532.94;4790797;30;20036;-81
2022/01/20 04:22:07;;;;;;;14.55;2.50;;;;;;;2.72;96.61;102515.13;4790564;30;20535;-81
2022/01/20 04:24:37;;;;;;;13.15;2.30;;;;;;;2.88;96.09;102542.28;4790512;30;20035;-81
2022/01/20 04:27:02;;;;;;;14.85;2.50;;;;;;;2.58;96.18;102490.53;4790777;30;20027;-81
2022/01/20 04:29:28;;;;;;;20.52;2.70;;;;;;;2.69;95.83;102492.19;4790673;30;20080;-81
2022/01/20 04:31:53;;;;;;;19.63;2.88;;;;;;;2.77;95.90;102521.91;4790722;30;20042;-81
2022/01/20 04:34:19;;;;;;;13.93;2.38;;;;;;;2.93;95.64;102545.66;4790412;30;20507;-81
2022/01/20 04:36:47;;;;;;;17.02;2.63;;;;;;;2.92;95.24;102545.66;4790404;30;20027;-81
2022/01/20 04:39:18;;;;;;;18.70;2.70;;;;;;;2.93;95.44;102555.84;4790567;30;20042;-81
2022/01/20 04:41:44;;;;;;;18.10;2.67;;;;;;;2.95;94.85;102543.97;4790613;30;20035;-81
2022/01/20 04:44:16;;;;;;;16.35;2.88;;;;;;;2.95;94.90;102543.09;4790198;30;20089;-81
2022/01/20 04:46:54;;;;;;;13.95;2.33;;;;;;;2.92;94.78;102558.41;4790348;30;20438;-81
2022/01/20 04:57:31;;;;;;;17.52;3.88;;;;;;;2.85;95.04;102571.22;4790300;30;20108;-80
2022/01/20 04:59:56;;;;;;;16.05;2.33;;;;;;;2.78;94.27;102559.31;4789820;30;20027;-81
2022/01/20 05:02:25;;;;;;;16.75;2.20;;;;;;;2.87;94.42;102578.88;4790359;30;20446;-81
2022/01/20 05:04:51;;;;;;;11.27;2.42;;;;;;;2.88;94.67;102581.41;4790124;30;20027;-81
2022/01/20 05:07:25;;;;;;;14.48;2.28;;;;;;;2.88;94.55;102580.56;4789873;30;20482;-81
2022/01/20 05:09:53;;;;;;;16.50;2.67;;;;;;;2.73;94.44;102557.63;4788623;30;20437;-81
2022/01/20 05:12:24;;;;;;;15.60;2.63;;;;;;;2.92;93.95;102583.94;4789671;30;20051;-81
2022/01/20 05:14:50;;;;;;;15.55;2.20;;;;;;;2.75;94.57;102550.81;4789768;30;20044;-81
2022/01/20 05:17:15;;;;;;;14.50;1.88;;;;;;;2.97;94.67;102590.75;4789767;30;20077;-81
2022/01/20 05:19:44;;;;;;;15.13;2.40;;;;;;;2.98;94.44;102592.44;4788445;30;20050;-80
2022/01/20 05:22:09;;;;;;;13.43;2.20;;;;;;;2.79;94.34;102566.13;4789626;30;20035;-81
2022/01/20 05:24:34;;;;;;;16.45;2.33;;;;;;;2.94;94.57;102588.16;4789706;30;20035;-81
2022/01/20 05:26:59;;;;;;;16.25;3.22;;;;;;;2.83;94.77;102575.44;4788688;29;20031;-80
2022/01/20 05:29:25;;;;;;;17.40;2.80;;;;;;;3.05;94.78;102609.44;4789293;30;20031;-81
2022/01/20 05:31:51;;;;;;;16.70;3.10;;;;;;;2.95;94.94;102592.44;4789372;30;20031;-81
2022/01/20 05:34:17;;;;;;;10.48;1.90;;;;;;;3.07;95.94;102619.63;4789574;30;20073;-81
2022/01/20 05:36:46;;;;;;;15.68;2.53;;;;;;;2.87;95.91;102592.47;4789335;30;20110;-81
2022/01/20 05:39:11;;;;;;;16.77;2.38;;;;;;;3.01;96.55;102617.09;4789487;30;20038;-81
2022/01/20 05:41:37;;;;;;;13.10;3.08;;;;;;;2.96;96.84;102636.69;4789337;30;20040;-81
2022/01/20 05:44:03;;;;;;;14.73;3.72;;;;;;;2.87;96.16;102638.41;4787993;30;20102;-81
2022/01/20 05:46:35;;;;;;;17.33;2.90;;;;;;;2.65;96.51;102612.91;4789515;30;20118;-81
2022/01/20 05:49:08;;;;;;;12.40;2.38;;;;;;;2.84;97.73;102666.44;4787572;30;20424;-81
2022/01/20 05:51:35;;;;;;;9.98;2.15;;;;;;;2.50;97.15;102622.28;4789216;30;20035;-81
2022/01/20 05:54:05;;;;;;;17.98;3.22;;;;;;;2.15;97.91;102598.47;4795254;24;21473;-81
2022/01/20 05:56:45;;;;;;;16.63;2.78;;;;;;;1.93;98.50;102572.16;4768987;30;20047;-81
2022/01/20 05:59:20;;;;;;;15.68;2.50;;;;;;;2.00;99.32;102589.16;4768945;30;20044;-81
2022/01/20 06:01:52;;;;;;;13.70;3.13;;;;;;;1.58;99.21;102524.59;4769113;30;20040;-81
2022/01/20 06:04:17;;;;;;;19.92;3.25;;;;;;;2.31;98.81;102666.47;4766460;30;20103;-81
2022/01/20 06:06:44;;;;;;;16.75;2.72;;;;;;;2.13;98.62;102626.53;4768993;30;20056;-81
2022/01/20 06:09:15;;;;;;;15.65;2.55;;;;;;;1.26;99.16;102468.50;4769012;30;20042;-81
2022/01/20 06:11:40;;;;;;;13.35;2.22;;;;;;;1.90;98.64;102578.09;4769393;29;20040;-81
2022/01/20 06:18:01;;;;;;;23.23;2.97;;;;;;;2.43;97.47;102674.13;4768611;30;20055;-81
2022/01/20 06:20:32;;;;;;;16.73;2.83;;;;;;;1.63;96.53;102544.94;4768986;30;20044;-81
2022/01/20 06:25:55;;;;;;;15.35;2.70;;;;;;;2.47;95.61;102697.94;4769076;30;19929;-81
2022/01/20 06:28:22;;;;;;;20.10;2.75;;;;;;;2.06;93.95;102629.06;4785357;30;20126;-81
2022/01/20 06:30:53;;;;;;;21.38;2.88;;;;;;;1.90;92.95;102592.53;4788466;29;20031;-81
2022/01/20 06:33:19;;;;;;;18.83;4.00;;;;;;;2.12;92.25;102631.63;4788491;30;20088;-81
2022/01/20 06:35:44;;;;;;;14.77;2.88;;;;;;;2.50;91.60;102695.38;4788608;30;20027;-81
2022/01/20 06:38:46;;;;;;;20.42;3.75;;;;;;;2.58;91.32;102709.00;4788095;29;20046;-81
2022/01/20 06:41:38;;;;;;;13.82;2.90;;;;;;;2.57;90.63;102710.69;4772200;30;20050;-81
2022/01/20 06:44:34;;;;;;;19.55;2.85;;;;;;;2.59;89.72;102715.78;4788380;30;20046;-81
2022/01/20 07:15:46;;;;;;;17.17;2.88;;;;;;;2.58;80.80;102754.91;4787509;30;20050;-81
2022/01/20 07:18:12;;;;;;;22.50;3.40;;;;;;;2.58;80.45;102753.19;5063465;24;20105;-81
2022/01/20 07:20:45;;;;;;;18.48;4.40;;;;;;;2.45;79.70;102743.81;4787575;30;20173;-82
2022/01/20 07:49:49;;;;;;;17.45;2.70;;;;;;;1.59;76.55;102612.84;4789477;29;20511;-81
2022/01/20 07:52:17;;;;;;;19.80;3.80;;;;;;;2.72;75.27;102790.63;4791105;30;20027;-81
2022/01/20 07:55:19;;;;;;;16.10;2.80;;;;;;;2.73;76.62;102789.75;4791795;30;20067;-81
2022/01/20 07:57:44;;;;;;;;;;;;;;;2.75;79.25;102801.69;5377211;24;20055;-79
2022/01/20 08:00:10;;;;;;;16.73;2.50;;;;;;;2.70;75.43;102793.16;4775626;30;19967;-80
2022/01/20 08:02:35;;;;;;;15.40;3.20;;;;;;;2.77;75.58;102811.91;4790840;29;20031;-80
2022/01/20 08:05:01;;;;;;;19.98;2.88;;;;;;;2.79;73.74;102812.75;4774831;30;20046;-79
2022/01/20 08:07:27;;;;;;;19.80;2.67;;;;;;;2.82;75.47;102823.78;4790953;30;20071;-78
2022/01/20 08:09:57;;;;;;;16.05;3.35;;;;;;;2.70;74.83;102797.41;4791045;30;20038;-79
2022/01/20 08:12:26;;;;;;;15.70;2.85;;;;;;;2.67;73.62;102793.19;4790834;30;20459;-78
2022/01/20 08:14:53;;;;;;;15.27;2.90;;;;;;;2.88;74.11;102833.16;4790897;30;20042;-78
2022/01/20 08:17:18;;;;;;;16.45;2.20;;;;;;;2.62;74.05;102778.69;4790326;30;20038;-80
2022/01/20 08:19:44;;;;;;;13.88;2.35;;;;;;;2.90;74.53;102833.16;4790405;30;20114;-78
2022/01/20 08:22:10;;;;;;;17.73;2.85;;;;;;;2.91;75.68;102833.16;4790749;30;20078;-76
2022/01/20 08:24:36;;;;;;;18.83;2.50;;;;;;;2.95;75.35;102849.31;4790629;30;20024;-77
2022/01/20 08:27:01;;;;;;;13.98;2.88;;;;;;;2.97;75.21;102838.28;4790607;30;20043;-77
2022/01/20 08:29:26;;;;;;;21.17;3.63;;;;;;;2.98;75.90;102841.69;4790857;30;20063;-77
2022/01/20 08:31:52;;;;;;;17.10;3.20;;;;;;;2.97;74.96;102852.75;4790305;30;20514;-77
2022/01/20 08:34:17;;;;;;;16.92;3.47;;;;;;;2.76;76.48;102821.25;4790508;30;20042;-77
2022/01/20 08:36:44;;;;;;;16.70;3.67;;;;;;;2.90;76.11;102828.91;4790639;30;20027;-78
2022/01/20 08:41:54;;;;;;;12.95;2.60;;;;;;;3.10;77.26;102857.00;4790505;30;20074;-78
2022/01/20 08:44:20;;;;;;;16.77;2.90;;;;;;;3.04;77.23;102846.78;4790395;30;20035;-78
2022/01/20 08:46:46;;;;;;;21.33;3.03;;;;;;;3.13;78.61;102869.75;4790194;30;20036;-78
2022/01/20 08:49:12;;;;;;;19.85;2.83;;;;;;;3.15;78.63;102866.38;4790070;29;20032;-78
2022/01/20 08:51:37;;;;;;;15.68;2.83;;;;;;;3.06;77.50;102853.59;4790273;30;20034;-80
2022/01/20 08:54:03;;;;;;;18.20;2.90;;;;;;;3.17;78.29;102874.88;4790281;30;20038;-79
2022/01/20 08:56:28;;;;;;;15.23;2.85;;;;;;;3.16;78.99;102888.50;4790514;30;20039;-77
2022/01/20 08:58:56;;;;;;;18.70;3.25;;;;;;;3.09;77.96;102889.34;4789656;30;20136;-78
2022/01/20 09:01:22;;;;;;;18.30;2.58;;;;;;;2.92;78.84;102873.13;4790071;29;20122;-78
2022/01/20 09:03:47;;;;;;;15.57;2.88;;;;;;;2.93;79.08;102873.97;4789871;30;20039;-78
2022/01/20 09:06:13;;;;;;;15.45;2.40;;;;;;;3.08;79.32;102892.72;4790025;30;20043;-77
2022/01/20 09:08:39;;;;;;;14.85;2.72;;;;;;;3.01;79.10;102893.56;4790111;30;20377;-79
2022/01/20 09:11:16;;;;;;;14.85;2.35;;;;;;;2.89;80.28;102857.84;4782635;30;20031;-79
2022/01/20 09:16:25;;;;;;;14.80;2.70;;;;;;;2.98;80.11;102862.09;4790106;30;20046;-79
2022/01/20 09:18:51;;;;;;;17.00;2.78;;;;;;;2.95;80.10;102856.97;4789801;29;20416;-79
2022/01/20 09:21:21;;;;;;;14.77;1.90;;;;;;;3.16;80.36;102893.59;4788741;30;20488;-77
2022/01/20 09:23:46;;;;;;;14.40;2.25;;;;;;;3.27;80.35;102901.25;4789763;30;20174;-76
2022/01/20 09:26:11;;;;;;;15.75;2.50;;;;;;;3.23;80.35;102901.25;4789766;30;20102;-79
2022/01/20 09:28:37;;;;;;;17.35;2.95;;;;;;;3.19;80.28;102905.50;4789619;30;20027;-77
2022/01/20 09:31:03;;;;;;;11.52;2.67;;;;;;;3.05;80.20;102902.09;4789582;30;20559;-76
2022/01/20 09:33:29;;;;;;;13.95;2.28;;;;;;;2.62;81.29;102850.97;4773520;30;20043;-79
2022/01/20 09:35:57;;;;;;;14.82;2.47;;;;;;;2.74;81.38;102891.81;4789441;30;20049;-77
2022/01/20 09:38:31;;;;;;;14.13;2.60;;;;;;;2.54;81.53;102860.28;4773483;30;20047;-82
2022/01/20 09:40:56;;;;;;;15.75;3.15;;;;;;;2.88;81.58;102889.31;4789688;30;20027;-78
2022/01/20 09:43:22;;;;;;;16.50;2.88;;;;;;;2.96;81.04;102885.06;4789291;30;20064;-78
2022/01/20 09:45:54;;;;;;;16.38;2.88;;;;;;;3.03;81.45;102876.53;4789419;30;20122;-79
2022/01/20 09:48:24;;;;;;;16.30;2.72;;;;;;;3.26;81.63;102891.06;4788871;29;20040;-76
2022/01/20 09:50:50;;;;;;;16.25;2.88;;;;;;;3.35;79.82;102901.28;4789298;30;20092;-76
2022/01/20 09:53:16;;;;;;;17.23;3.53;;;;;;;3.28;80.08;102907.22;4789246;30;20043;-79
2022/01/20 09:55:42;;;;;;;19.50;3.22;;;;;;;3.27;80.09;102920.84;4789187;30;20035;-76
2022/01/20 09:58:09;;;;;;;17.75;4.18;;;;;;;3.15;80.38;102930.19;4788876;30;20130;-77
2022/01/20 10:00:35;;;;;;;17.08;3.15;;;;;;;2.98;80.86;102925.91;4789342;30;20530;-80
2022/01/20 10:03:20;;;;;;;12.05;2.33;;;;;;;2.99;81.55;102943.75;4789296;30;20019;-80
2022/01/20 10:05:51;;;;;;;13.95;2.85;;;;;;;2.91;81.39;102948.00;4788926;30;20031;-79
2022/01/20 10:08:21;;;;;;;12.43;3.20;;;;;;;2.80;81.56;102924.16;4789002;30;20507;-80
2022/01/20 10:11:01;;;;;;;12.65;2.65;;;;;;;2.91;81.34;102963.31;4788649;30;20061;-82
2022/01/20 10:13:34;;;;;;;17.52;3.00;;;;;;;2.76;82.06;102932.66;4788677;29;20031;-80
2022/01/20 10:16:12;;;;;;;13.32;2.90;;;;;;;2.68;82.30;102921.56;4772552;30;20047;-83
2022/01/20 10:18:59;;;;;;;13.57;2.28;;;;;;;2.86;82.18;102959.91;4788522;30;20118;-81
2022/01/20 10:21:33;;;;;;;17.13;2.53;;;;;;;2.90;80.69;102953.09;4788667;30;20895;-79
2022/01/20 10:24:07;;;;;;;18.95;2.92;;;;;;;2.94;81.09;102970.09;4788602;30;20121;-80
2022/01/20 10:26:33;;;;;;;20.88;2.85;;;;;;;3.01;80.92;102964.19;4788736;30;20488;-79
2022/01/20 10:29:05;;;;;;;14.32;2.50;;;;;;;3.09;79.81;102975.28;4788446;30;20047;-82
2022/01/20 10:31:40;;;;;;;14.70;3.58;;;;;;;3.26;79.51;102973.63;4788304;30;20023;-80
2022/01/20 10:34:35;;;;;;;19.30;3.47;;;;;;;3.54;79.71;102968.50;4788270;30;20032;-82
2022/01/20 10:37:01;;;;;;;19.48;3.05;;;;;;;3.90;77.03;102970.22;4788547;30;20057;-83
2022/01/20 10:39:34;;;;;;;12.98;2.92;;;;;;;4.12;75.83;102986.38;4787031;30;20467;-83
2022/01/20 10:42:04;;;;;;;13.65;2.70;;;;;;;4.24;73.96;102979.56;4788556;30;20430;-83
2022/01/20 10:44:40;;;;;;;17.77;3.08;;;;;;;4.26;71.88;102982.97;4788044;30;20027;-81
2022/01/20 10:47:11;;;;;;;23.00;3.70;;;;;;;4.05;69.79;102957.44;4788323;30;20464;-81
2022/01/20 10:49:36;;;;;;;15.60;2.88;;;;;;;4.11;71.24;102965.06;4771800;30;20043;-82
2022/01/20 10:52:05;;;;;;;13.25;3.00;;;;;;;4.05;70.06;102972.78;4788229;30;20045;-81
2022/01/20 10:54:35;;;;;;;16.20;2.90;;;;;;;4.10;70.00;102972.75;4771717;30;20492;-80
2022/01/20 10:59:33;;;;;;;13.60;2.45;;;;;;;3.73;67.64;102906.34;4767343;30;20060;-79
2022/01/20 11:02:25;;;;;;;19.65;2.90;;;;;;;4.19;69.31;102981.25;4768060;30;20063;-82
2022/01/20 11:07:59;;;;;;;16.95;3.78;;;;;;;3.33;69.96;102836.56;4768297;30;20094;-81
2022/01/20 11:16:45;;;;;;;14.85;2.25;;;;;;;3.92;69.38;102953.16;4780587;24;20074;-80
2022/01/20 11:19:19;;;;;;;15.75;2.58;;;;;;;4.24;69.27;102987.22;4777876;24;20422;-81
2022/01/20 11:21:46;;;;;;;14.43;2.55;;;;;;;4.37;68.09;102982.94;4786326;30;20035;-80
2022/01/20 11:24:25;;;;;;;16.60;2.63;;;;;;;4.36;68.62;102971.00;4787014;30;20365;-80
2022/01/20 11:26:53;;;;;;;16.00;2.25;;;;;;;4.53;68.44;102989.72;4787713;30;20035;-78
2022/01/20 11:29:19;;;;;;;16.48;3.50;;;;;;;4.55;68.30;102979.47;4787942;30;20035;-78
2022/01/20 11:31:47;;;;;;;14.00;2.60;;;;;;;4.41;67.86;102968.41;4787637;30;20091;-80
2022/01/20 11:34:17;;;;;;;12.70;2.42;;;;;;;4.23;67.97;102941.19;4787860;30;20034;-81
2022/01/20 11:36:43;;;;;;;20.02;2.88;;;;;;;4.51;67.84;102970.94;4787437;30;20027;-81
2022/01/20 11:39:08;;;;;;;11.55;2.33;;;;;;;4.60;66.16;102972.59;4787687;30;20598;-81
2022/01/20 11:45:14;;;;;;;17.33;2.78;;;;;;;3.39;65.54;102798.25;4787739;30;20073;-80
2022/01/20 11:47:41;;;;;;;15.10;2.42;;;;;;;3.47;67.14;102823.78;4787843;30;20200;-80
2022/01/20 11:50:28;;;;;;;15.60;2.78;;;;;;;4.29;67.02;102965.03;4787461;30;20376;-81
2022/01/20 11:53:14;;;;;;;16.92;2.65;;;;;;;3.94;68.17;102910.59;4787541;30;20031;-78
2022/01/20 11:55:54;;;;;;;13.40;2.75;;;;;;;4.26;68.22;102956.53;4787190;30;20088;-80
2022/01/20 11:58:23;;;;;;;21.05;2.88;;;;;;;4.26;68.91;102959.94;4787657;30;20372;-80
2022/01/20 12:01:06;;;;;;;19.08;2.88;;;;;;;4.15;67.43;102940.38;4787433;30;20062;-79
2022/01/20 12:03:34;;;;;;;18.25;2.33;;;;;;;4.13;65.87;102962.50;4771401;30;20031;-80
2022/01/20 12:06:03;;;;;;;13.75;1.95;;;;;;;4.03;64.64;102971.91;4787460;30;20066;-80
2022/01/20 12:08:29;;;;;;;10.00;2.40;;;;;;;3.98;67.12;102968.50;4771069;30;20047;-81
2022/01/20 12:11:03;;;;;;;14.63;2.13;;;;;;;4.05;66.69;102959.13;4787497;30;20537;-79
2022/01/20 12:13:30;;;;;;;12.13;2.65;;;;;;;4.06;64.76;102925.91;4787255;30;20069;-79
2022/01/20 12:15:58;;;;;;;16.38;3.50;;;;;;;4.39;65.18;102935.16;4787391;30;20399;-78
2022/01/20 12:18:24;;;;;;;16.65;2.47;;;;;;;4.56;63.78;102948.75;4787187;30;20039;-80
2022/01/20 12:20:53;;;;;;;12.15;2.20;;;;;;;4.55;65.45;102910.38;4786009;30;20503;-78
2022/01/20 12:23:27;;;;;;;15.40;2.33;;;;;;;4.64;62.43;102915.47;4787167;29;20039;-81
2022/01/20 12:26:01;;;;;;;11.95;2.40;;;;;;;4.71;61.83;102944.41;4787298;30;20035;-80
2022/01/20 12:28:27;;;;;;;9.95;1.98;;;;;;;4.53;61.61;102919.78;4787358;30;20031;-79
2022/01/20 12:30:59;;;;;;;15.77;3.22;;;;;;;4.43;61.70;102924.09;4793885;24;20054;-80
2022/01/20 12:33:27;;;;;;;13.98;2.10;;;;;;;4.55;62.25;102957.28;4787304;30;20502;-81
2022/01/20 12:35:55;;;;;;;12.20;2.05;;;;;;;4.52;62.16;102954.75;4788699;29;20038;-79
2022/01/20 12:38:33;;;;;;;13.88;2.15;;;;;;;4.28;63.21;102930.09;4790307;30;20039;-79
2022/01/20 12:41:04;;;;;;;12.68;1.33;;;;;;;4.42;63.77;102954.75;4790381;30;20042;-81
2022/01/20 12:43:48;;;;;;;;;;;;;;;4.49;64.68;102948.78;4790915;30;20046;-79
2022/01/20 12:46:17;;;;;;;13.57;1.77;;;;;;;4.39;64.96;102924.94;4790384;30;19929;-78
2022/01/20 12:49:04;;;;;;;17.55;1.80;;;;;;;4.67;65.34;102941.03;4790553;30;20120;-80
2022/01/20 12:51:32;;;;;;;13.75;2.60;;;;;;;4.76;65.94;102941.00;4790252;29;20039;-80
2022/01/20 12:54:05;;;;;;;17.40;2.38;;;;;;;4.75;67.55;102923.94;4790284;30;20411;-81
2022/01/20 12:56:33;;;;;;;14.57;2.67;;;;;;;4.84;68.01;102929.00;4790431;30;20036;-80
2022/01/20 12:58:58;;;;;;;12.15;2.45;;;;;;;4.87;69.87;102908.50;4790474;30;20079;-80
2022/01/20 13:01:36;;;;;;;15.68;2.33;;;;;;;4.82;69.82;102910.25;4790050;30;20507;-80
2022/01/20 13:04:02;;;;;;;15.10;2.78;;;;;;;4.79;70.37;102917.06;4790066;30;20468;-84
2022/01/20 13:06:32;;;;;;;13.40;2.35;;;;;;;4.75;69.97;102923.09;4790170;30;20109;-82
2022/01/20 13:09:06;;;;;;;15.10;2.42;;;;;;;4.69;70.96;102921.38;4790651;29;20074;-84
2022/01/20 13:11:57;;;;;;;14.20;2.75;;;;;;;4.72;70.53;102943.56;4790245;30;20096;-79
2022/01/20 13:14:46;;;;;;;11.57;1.90;;;;;;;4.58;70.69;102931.69;4789781;30;20499;-77
2022/01/20 13:17:18;;;;;;;13.07;2.20;;;;;;;4.45;70.16;102930.03;4789826;30;20122;-76
2022/01/20 13:19:46;;;;;;;12.70;2.53;;;;;;;4.41;71.57;102948.78;4789465;30;20039;-77
2022/01/20 13:22:42;;;;;;;13.55;2.20;;;;;;;4.41;71.25;102951.34;4789721;29;20027;-75
2022/01/20 13:25:15;;;;;;;13.60;2.70;;;;;;;4.32;72.22;102951.38;4789074;29;20073;-75
2022/01/20 13:27:54;;;;;;;14.85;2.08;;;;;;;4.16;73.42;102952.28;4789778;30;20034;-76
2022/01/20 13:30:40;;;;;;;13.35;2.30;;;;;;;3.92;75.34;102961.69;4788882;29;20044;-74
2022/01/20 13:33:38;;;;;;;14.43;1.92;;;;;;;3.57;78.47;102971.94;4794899;24;20496;-77
2022/01/20 13:36:04;;;;;;;13.93;2.90;;;;;;;3.33;83.79;102982.97;4719778;30;20056;-76
2022/01/20 13:38:34;;;;;;;16.00;2.50;;;;;;;2.80;86.08;102964.97;4734060;30;20078;-74
2022/01/20 13:41:09;;;;;;;10.93;1.83;;;;;;;2.24;87.18;102927.31;4734055;30;20056;-77
2022/01/20 13:46:44;;;;;;;14.13;3.58;;;;;;;2.10;90.22;102985.88;4733375;30;20201;-76
2022/01/20 13:49:23;;;;;;;19.42;2.95;;;;;;;2.01;92.06;102973.91;4733940;30;20085;-77
2022/01/20 13:52:06;;;;;;;17.55;2.80;;;;;;;1.81;93.19;102957.63;4734078;30;20040;-77
2022/01/20 13:54:42;;;;;;;14.98;2.83;;;;;;;1.64;94.23;102932.00;4733787;30;20048;-76
2022/01/20 13:57:08;;;;;;;16.35;3.10;;;;;;;1.74;94.39;102953.31;4733852;30;20037;-76
2022/01/20 13:59:34;;;;;;;13.65;2.67;;;;;;;1.88;94.77;102968.72;4733797;30;20049;-77